sensor_id;sensor_type;location;lat;lon;timestamp;temperature;humidity
13711;DHT22;6927;51.256;9.410;2023-02-28T05:55:37;-0.40;99.90
13711;DHT22;6927;51.256;9.410;2023-02-28T05:58:03;-0.40;99.90
13711;DHT22;6927;51.256;9.410;2023-02-28T06:00:29;-0.40;99.90
13711;DHT22;6927;51.256;9.410;2023-02-28T06:02:55;-0.40;99.90
13711;DHT22;6927;51.256;9.410;2023-02-28T06:05:23;-0.40;99.90
13711;DHT22;6927;51.256;9.410;2023-02-28T06:07:49;-0.40;99.90
13711;DHT22;6927;51.256;9.410;2023-02-28T06:10:15;-0.40;99.90
13711;DHT22;6927;51.256;9.410;2023-02-28T06:12:41;-0.40;99.90
13711;DHT22;6927;51.256;9.410;2023-02-28T06:15:11;-0.30;99.90
13711;DHT22;6927;51.256;9.410;2023-02-28T06:17:37;-0.30;99.90
13711;DHT22;6927;51.256;9.410;2023-02-28T06:20:03;-0.30;99.90
13711;DHT22;6927;51.256;9.410;2023-02-28T06:22:29;-0.20;99.90
13711;DHT22;6927;51.256;9.410;2023-02-28T06:24:55;-0.20;99.90
13711;DHT22;6927;51.256;9.410;2023-02-28T06:27:22;-0.20;99.90
13711;DHT22;6927;51.256;9.410;2023-02-28T06:29:48;-0.20;99.90
13711;DHT22;6927;51.256;9.410;2023-02-28T06:32:13;-0.20;99.90
13711;DHT22;6927;51.256;9.410;2023-02-28T06:34:39;-0.20;99.90
13711;DHT22;6927;51.256;9.410;2023-02-28T06:37:05;-0.10;99.90
13711;DHT22;6927;51.256;9.410;2023-02-28T06:39:31;0.00;99.90
13711;DHT22;6927;51.256;9.410;2023-02-28T06:41:56;0.00;99.90
13711;DHT22;6927;51.256;9.410;2023-02-28T06:44:23;0.00;99.90
13711;DHT22;6927;51.256;9.410;2023-02-28T06:46:49;0.10;99.90
13711;DHT22;6927;51.256;9.410;2023-02-28T06:49:15;0.10;99.90
13711;DHT22;6927;51.256;9.410;2023-02-28T06:51:43;0.00;99.90
13711;DHT22;6927;51.256;9.410;2023-02-28T06:54:12;0.00;99.90
13711;DHT22;6927;51.256;9.410;2023-02-28T06:56:38;-0.10;99.90
13711;DHT22;6927;51.256;9.410;2023-02-28T06:59:04;-0.10;99.90
13711;DHT22;6927;51.256;9.410;2023-02-28T07:01:30;-0.20;99.90
13711;DHT22;6927;51.256;9.410;2023-02-28T07:04:02;-0.20;99.90
13711;DHT22;6927;51.256;9.410;2023-02-28T07:06:27;-0.20;99.90
13711;DHT22;6927;51.256;9.410;2023-02-28T07:08:54;-0.20;99.90
13711;DHT22;6927;51.256;9.410;2023-02-28T07:11:24;0.00;99.90
13711;DHT22;6927;51.256;9.410;2023-02-28T07:13:54;0.40;99.90
13711;DHT22;6927;51.256;9.410;2023-02-28T07:16:20;0.70;99.90
13711;DHT22;6927;51.256;9.410;2023-02-28T07:18:47;1.00;99.90
13711;DHT22;6927;51.256;9.410;2023-02-28T07:21:13;1.30;99.90
13711;DHT22;6927;51.256;9.410;2023-02-28T07:23:39;1.50;99.90
13711;DHT22;6927;51.256;9.410;2023-02-28T07:26:07;1.90;99.90
13711;DHT22;6927;51.256;9.410;2023-02-28T07:28:36;2.00;99.90
13711;DHT22;6927;51.256;9.410;2023-02-28T07:31:08;2.10;99.90
13711;DHT22;6927;51.256;9.410;2023-02-28T07:33:37;2.20;99.90
13711;DHT22;6927;51.256;9.410;2023-02-28T07:36:21;2.20;99.90
13711;DHT22;6927;51.256;9.410;2023-02-28T07:39:06;2.10;99.90
13711;DHT22;6927;51.256;9.410;2023-02-28T07:41:34;2.30;99.90
13711;DHT22;6927;51.256;9.410;2023-02-28T07:44:11;2.60;99.90
13711;DHT22;6927;51.256;9.410;2023-02-28T07:46:39;2.50;99.90
13711;DHT22;6927;51.256;9.410;2023-02-28T07:49:15;2.50;99.90
13711;DHT22;6927;51.256;9.410;2023-02-28T07:52:08;2.20;99.90
13711;DHT22;6927;51.256;9.410;2023-02-28T07:54:34;2.10;99.90
13711;DHT22;6927;51.256;9.410;2023-02-28T07:56:59;2.30;99.90
13711;DHT22;6927;51.256;9.410;2023-02-28T07:59:25;3.00;99.90
13711;DHT22;6927;51.256;9.410;2023-02-28T08:01:57;3.80;99.90
13711;DHT22;6927;51.256;9.410;2023-02-28T08:04:32;4.00;99.90
13711;DHT22;6927;51.256;9.410;2023-02-28T08:06:57;4.20;99.90
13711;DHT22;6927;51.256;9.410;2023-02-28T08:09:32;4.10;99.90
13711;DHT22;6927;51.256;9.410;2023-02-28T08:11:58;3.90;99.90
13711;DHT22;6927;51.256;9.410;2023-02-28T08:14:26;3.30;99.90
13711;DHT22;6927;51.256;9.410;2023-02-28T08:17:03;3.10;99.90
13711;DHT22;6927;51.256;9.410;2023-02-28T08:19:31;3.50;99.90
13711;DHT22;6927;51.256;9.410;2023-02-28T08:21:57;4.10;99.90
13711;DHT22;6927;51.256;9.410;2023-02-28T08:24:23;3.30;99.90
13711;DHT22;6927;51.256;9.410;2023-02-28T08:26:51;3.20;99.90
13711;DHT22;6927;51.256;9.410;2023-02-28T08:29:20;2.90;99.90
13711;DHT22;6927;51.256;9.410;2023-02-28T08:31:46;2.90;99.90
13711;DHT22;6927;51.256;9.410;2023-02-28T08:34:14;2.80;99.90
13711;DHT22;6927;51.256;9.410;2023-02-28T08:36:40;3.00;99.90
13711;DHT22;6927;51.256;9.410;2023-02-28T08:39:09;3.10;99.90
13711;DHT22;6927;51.256;9.410;2023-02-28T08:41:37;3.20;99.90
13711;DHT22;6927;51.256;9.410;2023-02-28T08:44:02;2.80;99.90
13711;DHT22;6927;51.256;9.410;2023-02-28T08:46:28;2.70;99.90
13711;DHT22;6927;51.256;9.410;2023-02-28T08:48:55;3.00;99.90
13711;DHT22;6927;51.256;9.410;2023-02-28T08:51:24;3.10;99.90
13711;DHT22;6927;51.256;9.410;2023-02-28T08:53:54;3.20;99.90
13711;DHT22;6927;51.256;9.410;2023-02-28T08:56:21;3.20;99.90
13711;DHT22;6927;51.256;9.410;2023-02-28T08:58:48;3.40;99.90
13711;DHT22;6927;51.256;9.410;2023-02-28T09:01:16;3.60;99.90
13711;DHT22;6927;51.256;9.410;2023-02-28T09:03:47;4.10;99.90
13711;DHT22;6927;51.256;9.410;2023-02-28T09:06:14;3.70;99.90
13711;DHT22;6927;51.256;9.410;2023-02-28T09:08:42;4.00;99.90
13711;DHT22;6927;51.256;9.410;2023-02-28T09:11:09;4.00;99.90
13711;DHT22;6927;51.256;9.410;2023-02-28T09:13:36;3.40;99.90
13711;DHT22;6927;51.256;9.410;2023-02-28T09:16:07;3.90;99.90
13711;DHT22;6927;51.256;9.410;2023-02-28T09:18:37;4.10;99.90
13711;DHT22;6927;51.256;9.410;2023-02-28T09:21:11;3.90;99.90
13711;DHT22;6927;51.256;9.410;2023-02-28T09:23:40;3.70;99.90
13711;DHT22;6927;51.256;9.410;2023-02-28T09:26:06;3.00;99.90
13711;DHT22;6927;51.256;9.410;2023-02-28T09:28:32;2.70;99.90
13711;DHT22;6927;51.256;9.410;2023-02-28T09:30:57;2.70;99.90
13711;DHT22;6927;51.256;9.410;2023-02-28T09:33:27;3.50;99.90
13711;DHT22;6927;51.256;9.410;2023-02-28T09:35:59;4.30;99.90
13711;DHT22;6927;51.256;9.410;2023-02-28T09:38:26;4.90;99.90
13711;DHT22;6927;51.256;9.410;2023-02-28T09:40:55;5.30;99.90
13711;DHT22;6927;51.256;9.410;2023-02-28T09:43:25;5.30;99.90
13711;DHT22;6927;51.256;9.410;2023-02-28T09:45:56;5.10;99.90
13711;DHT22;6927;51.256;9.410;2023-02-28T09:48:32;5.10;99.90
13711;DHT22;6927;51.256;9.410;2023-02-28T09:51:14;4.50;99.90
13711;DHT22;6927;51.256;9.410;2023-02-28T09:53:41;4.00;99.90
13711;DHT22;6927;51.256;9.410;2023-02-28T09:56:21;4.00;99.90
13711;DHT22;6927;51.256;9.410;2023-02-28T09:58:53;4.80;99.90
13711;DHT22;6927;51.256;9.410;2023-02-28T10:01:40;5.40;99.90
13711;DHT22;6927;51.256;9.410;2023-02-28T10:04:37;5.90;99.90
13711;DHT22;6927;51.256;9.410;2023-02-28T10:07:17;5.90;99.90
13711;DHT22;6927;51.256;9.410;2023-02-28T10:09:47;5.00;99.90
13711;DHT22;6927;51.256;9.410;2023-02-28T10:12:16;4.60;99.90
13711;DHT22;6927;51.256;9.410;2023-02-28T10:14:45;3.80;99.90
13711;DHT22;6927;51.256;9.410;2023-02-28T10:17:19;3.80;99.90
13711;DHT22;6927;51.256;9.410;2023-02-28T10:19:53;3.70;99.90
13711;DHT22;6927;51.256;9.410;2023-02-28T10:26:19;4.90;99.90
13711;DHT22;6927;51.256;9.410;2023-02-28T10:37:46;4.40;99.90
13711;DHT22;6927;51.256;9.410;2023-02-28T10:47:29;4.80;99.90
13711;DHT22;6927;51.256;9.410;2023-02-28T10:54:05;4.20;99.90
13711;DHT22;6927;51.256;9.410;2023-02-28T11:05:29;4.90;99.90
13711;DHT22;6927;51.256;9.410;2023-02-28T11:08:17;4.20;99.90
13711;DHT22;6927;51.256;9.410;2023-02-28T11:10:48;3.70;99.90
13711;DHT22;6927;51.256;9.410;2023-02-28T11:13:20;4.00;99.90
13711;DHT22;6927;51.256;9.410;2023-02-28T11:15:56;4.20;99.90
13711;DHT22;6927;51.256;9.410;2023-02-28T11:18:29;4.60;99.90
13711;DHT22;6927;51.256;9.410;2023-02-28T11:21:16;4.70;99.90
13711;DHT22;6927;51.256;9.410;2023-02-28T11:23:43;5.70;99.90
13711;DHT22;6927;51.256;9.410;2023-02-28T11:26:09;6.60;99.90
13711;DHT22;6927;51.256;9.410;2023-02-28T11:28:43;7.20;99.90
13711;DHT22;6927;51.256;9.410;2023-02-28T11:33:55;7.10;99.90
13711;DHT22;6927;51.256;9.410;2023-02-28T11:36:26;7.30;99.90
13711;DHT22;6927;51.256;9.410;2023-02-28T11:38:58;7.10;99.90
13711;DHT22;6927;51.256;9.410;2023-02-28T11:41:50;6.30;99.90
13711;DHT22;6927;51.256;9.410;2023-02-28T11:47:48;6.60;99.90
13711;DHT22;6927;51.256;9.410;2023-02-28T11:50:26;6.80;99.90
13711;DHT22;6927;51.256;9.410;2023-02-28T11:53:00;6.60;99.90
13711;DHT22;6927;51.256;9.410;2023-02-28T11:55:35;6.00;99.90
13711;DHT22;6927;51.256;9.410;2023-02-28T12:07:50;6.60;99.90
13711;DHT22;6927;51.256;9.410;2023-02-28T12:15:25;7.60;99.90
13711;DHT22;6927;51.256;9.410;2023-02-28T12:20:17;8.10;99.90
13711;DHT22;6927;51.256;9.410;2023-02-28T12:26:44;7.30;99.90
13711;DHT22;6927;51.256;9.410;2023-02-28T12:29:48;8.10;99.90
13711;DHT22;6927;51.256;9.410;2023-02-28T12:32:44;7.80;99.90
13711;DHT22;6927;51.256;9.410;2023-02-28T12:35:24;8.50;99.90
13711;DHT22;6927;51.256;9.410;2023-02-28T12:38:14;9.40;99.90
13711;DHT22;6927;51.256;9.410;2023-02-28T12:41:19;9.10;99.90
13711;DHT22;6927;51.256;9.410;2023-02-28T12:43:54;9.10;99.90
13711;DHT22;6927;51.256;9.410;2023-02-28T12:46:29;8.60;99.90
13711;DHT22;6927;51.256;9.410;2023-02-28T12:48:56;8.90;99.90
13711;DHT22;6927;51.256;9.410;2023-02-28T12:51:24;9.40;99.90
13711;DHT22;6927;51.256;9.410;2023-02-28T12:54:19;9.30;99.90
13711;DHT22;6927;51.256;9.410;2023-02-28T12:57:05;9.40;99.90
13711;DHT22;6927;51.256;9.410;2023-02-28T12:59:42;7.90;99.90
13711;DHT22;6927;51.256;9.410;2023-02-28T13:10:46;7.00;99.90
13711;DHT22;6927;51.256;9.410;2023-02-28T13:13:19;6.70;99.90
13711;DHT22;6927;51.256;9.410;2023-02-28T13:16:03;6.30;99.90
13711;DHT22;6927;51.256;9.410;2023-02-28T13:18:46;6.20;99.90
13711;DHT22;6927;51.256;9.410;2023-02-28T13:21:29;6.00;99.90
13711;DHT22;6927;51.256;9.410;2023-02-28T13:23:57;5.80;99.90
13711;DHT22;6927;51.256;9.410;2023-02-28T13:29:01;5.80;99.90
13711;DHT22;6927;51.256;9.410;2023-02-28T13:31:27;5.60;99.90
13711;DHT22;6927;51.256;9.410;2023-02-28T13:36:32;5.50;99.90
13711;DHT22;6927;51.256;9.410;2023-02-28T13:38:59;5.70;99.90
13711;DHT22;6927;51.256;9.410;2023-02-28T13:44:12;6.20;99.90
13711;DHT22;6927;51.256;9.410;2023-02-28T13:49:31;5.70;99.90
13711;DHT22;6927;51.256;9.410;2023-02-28T13:52:10;6.40;99.90
13711;DHT22;6927;51.256;9.410;2023-02-28T13:54:54;7.20;99.90
13711;DHT22;6927;51.256;9.410;2023-02-28T14:00:08;8.10;99.90
13711;DHT22;6927;51.256;9.410;2023-02-28T14:05:34;8.90;99.90
13711;DHT22;6927;51.256;9.410;2023-02-28T14:08:10;9.50;99.90
13711;DHT22;6927;51.256;9.410;2023-02-28T14:10:44;10.10;99.90
13711;DHT22;6927;51.256;9.410;2023-02-28T14:13:43;10.50;99.90
13711;DHT22;6927;51.256;9.410;2023-02-28T14:16:12;9.80;99.90
13711;DHT22;6927;51.256;9.410;2023-02-28T14:18:50;9.30;99.90
13711;DHT22;6927;51.256;9.410;2023-02-28T14:21:22;8.50;99.90
13711;DHT22;6927;51.256;9.410;2023-02-28T14:26:56;8.80;99.90
13711;DHT22;6927;51.256;9.410;2023-02-28T14:32:41;8.80;99.90
13711;DHT22;6927;51.256;9.410;2023-02-28T14:37:41;9.10;99.90
13711;DHT22;6927;51.256;9.410;2023-02-28T14:40:33;9.00;99.90
13711;DHT22;6927;51.256;9.410;2023-02-28T14:43:02;7.90;99.90
13711;DHT22;6927;51.256;9.410;2023-02-28T14:45:34;7.40;99.90
13711;DHT22;6927;51.256;9.410;2023-02-28T14:48:02;7.60;99.90
13711;DHT22;6927;51.256;9.410;2023-02-28T14:50:32;7.80;99.90
13711;DHT22;6927;51.256;9.410;2023-02-28T14:52:59;7.10;99.90
13711;DHT22;6927;51.256;9.410;2023-02-28T14:55:43;6.50;99.90
13711;DHT22;6927;51.256;9.410;2023-02-28T14:58:27;6.30;99.90
13711;DHT22;6927;51.256;9.410;2023-02-28T15:00:56;6.60;99.90
13711;DHT22;6927;51.256;9.410;2023-02-28T15:03:33;6.70;99.90
13711;DHT22;6927;51.256;9.410;2023-02-28T15:06:01;6.90;99.90
13711;DHT22;6927;51.256;9.410;2023-02-28T15:08:28;7.20;99.90
13711;DHT22;6927;51.256;9.410;2023-02-28T15:11:01;7.60;99.90
13711;DHT22;6927;51.256;9.410;2023-02-28T15:13:49;7.50;99.90
13711;DHT22;6927;51.256;9.410;2023-02-28T15:16:21;8.20;99.90
13711;DHT22;6927;51.256;9.410;2023-02-28T15:19:02;8.40;99.90
13711;DHT22;6927;51.256;9.410;2023-02-28T15:21:36;7.70;99.90
13711;DHT22;6927;51.256;9.410;2023-02-28T15:24:35;7.20;99.90
13711;DHT22;6927;51.256;9.410;2023-02-28T15:27:10;6.30;99.90
13711;DHT22;6927;51.256;9.410;2023-02-28T15:29:46;5.70;99.90
13711;DHT22;6927;51.256;9.410;2023-02-28T15:32:25;5.70;99.90
13711;DHT22;6927;51.256;9.410;2023-02-28T15:34:51;5.60;99.90
13711;DHT22;6927;51.256;9.410;2023-02-28T15:42:35;5.10;99.90
13711;DHT22;6927;51.256;9.410;2023-02-28T15:45:04;4.90;99.90
13711;DHT22;6927;51.256;9.410;2023-02-28T15:47:30;4.80;99.90
13711;DHT22;6927;51.256;9.410;2023-02-28T15:49:59;4.70;99.90
13711;DHT22;6927;51.256;9.410;2023-02-28T15:52:29;4.70;99.90
13711;DHT22;6927;51.256;9.410;2023-02-28T15:54:58;4.80;99.90
13711;DHT22;6927;51.256;9.410;2023-02-28T15:57:25;4.90;99.90
13711;DHT22;6927;51.256;9.410;2023-02-28T16:00:00;5.10;99.90
13711;DHT22;6927;51.256;9.410;2023-02-28T16:02:32;4.80;99.90
13711;DHT22;6927;51.256;9.410;2023-02-28T16:07:34;4.30;99.90
13711;DHT22;6927;51.256;9.410;2023-02-28T16:10:00;4.00;99.90
13711;DHT22;6927;51.256;9.410;2023-02-28T16:12:28;4.00;99.90
13711;DHT22;6927;51.256;9.410;2023-02-28T16:14:56;3.90;99.90
13711;DHT22;6927;51.256;9.410;2023-02-28T16:17:25;3.90;99.90
13711;DHT22;6927;51.256;9.410;2023-02-28T16:19:51;3.90;99.90
13711;DHT22;6927;51.256;9.410;2023-02-28T16:22:17;3.80;99.90
13711;DHT22;6927;51.256;9.410;2023-02-28T16:24:42;3.80;99.90
13711;DHT22;6927;51.256;9.410;2023-02-28T16:27:18;3.80;99.90
13711;DHT22;6927;51.256;9.410;2023-02-28T16:29:46;3.80;99.90
13711;DHT22;6927;51.256;9.410;2023-02-28T16:32:15;3.60;99.90
13711;DHT22;6927;51.256;9.410;2023-02-28T16:34:43;3.60;99.90
13711;DHT22;6927;51.256;9.410;2023-02-28T16:37:18;3.60;99.90
13711;DHT22;6927;51.256;9.410;2023-02-28T16:39:45;3.50;99.90
13711;DHT22;6927;51.256;9.410;2023-02-28T16:42:27;3.40;99.90
13711;DHT22;6927;51.256;9.410;2023-02-28T16:44:54;3.30;99.90
13711;DHT22;6927;51.256;9.410;2023-02-28T16:47:21;3.20;99.90
13711;DHT22;6927;51.256;9.410;2023-02-28T16:49:47;3.20;99.90
13711;DHT22;6927;51.256;9.410;2023-02-28T16:52:13;3.20;99.90
13711;DHT22;6927;51.256;9.410;2023-02-28T16:54:40;3.10;99.90
13711;DHT22;6927;51.256;9.410;2023-02-28T16:57:13;3.00;99.90
13711;DHT22;6927;51.256;9.410;2023-02-28T16:59:42;3.00;99.90
13711;DHT22;6927;51.256;9.410;2023-02-28T17:02:12;2.90;99.90
13711;DHT22;6927;51.256;9.410;2023-02-28T17:04:39;2.90;99.90
13711;DHT22;6927;51.256;9.410;2023-02-28T17:07:04;2.80;99.90
13711;DHT22;6927;51.256;9.410;2023-02-28T17:09:30;2.80;99.90
13711;DHT22;6927;51.256;9.410;2023-02-28T17:11:55;2.80;99.90
13711;DHT22;6927;51.256;9.410;2023-02-28T17:14:22;2.70;99.90
13711;DHT22;6927;51.256;9.410;2023-02-28T17:16:48;2.70;99.90
13711;DHT22;6927;51.256;9.410;2023-02-28T17:19:15;2.60;99.90
13711;DHT22;6927;51.256;9.410;2023-02-28T17:21:42;2.60;99.90
13711;DHT22;6927;51.256;9.410;2023-02-28T17:24:08;2.50;99.90
13711;DHT22;6927;51.256;9.410;2023-02-28T17:26:37;2.50;99.90
13711;DHT22;6927;51.256;9.410;2023-02-28T17:29:09;2.40;99.90
13711;DHT22;6927;51.256;9.410;2023-02-28T17:31:36;2.40;99.90
13711;DHT22;6927;51.256;9.410;2023-02-28T17:34:04;2.40;99.90
13711;DHT22;6927;51.256;9.410;2023-02-28T17:36:29;2.40;99.90
13711;DHT22;6927;51.256;9.410;2023-02-28T17:38:55;2.40;99.90
13711;DHT22;6927;51.256;9.410;2023-02-28T17:41:21;2.30;99.90
13711;DHT22;6927;51.256;9.410;2023-02-28T17:43:47;2.30;99.90
13711;DHT22;6927;51.256;9.410;2023-02-28T17:46:18;2.30;99.90
13711;DHT22;6927;51.256;9.410;2023-02-28T17:48:46;2.20;99.90
13711;DHT22;6927;51.256;9.410;2023-02-28T17:51:16;2.10;99.90
13711;DHT22;6927;51.256;9.410;2023-02-28T17:54:11;2.10;99.90
13711;DHT22;6927;51.256;9.410;2023-02-28T17:56:57;2.00;99.90
13711;DHT22;6927;51.256;9.410;2023-02-28T17:59:28;2.00;99.90
13711;DHT22;6927;51.256;9.410;2023-02-28T18:02:25;1.90;99.90
13711;DHT22;6927;51.256;9.410;2023-02-28T18:04:55;1.80;99.90
13711;DHT22;6927;51.256;9.410;2023-02-28T18:07:33;1.80;99.90
13711;DHT22;6927;51.256;9.410;2023-02-28T18:12:51;1.60;99.90
13711;DHT22;6927;51.256;9.410;2023-02-28T20:49:32;0.20;99.90
13711;DHT22;6927;51.256;9.410;2023-02-28T20:52:00;0.20;99.90
13711;DHT22;6927;51.256;9.410;2023-02-28T20:54:27;0.20;99.90
13711;DHT22;6927;51.256;9.410;2023-02-28T20:56:55;0.20;99.90
13711;DHT22;6927;51.256;9.410;2023-02-28T21:02:17;0.30;99.90
13711;DHT22;6927;51.256;9.410;2023-02-28T21:04:58;0.30;99.90
13711;DHT22;6927;51.256;9.410;2023-02-28T22:13:40;-0.20;99.90
13711;DHT22;6927;51.256;9.410;2023-02-28T22:16:14;-0.20;99.90
13711;DHT22;6927;51.256;9.410;2023-02-28T22:19:02;-0.20;99.90
13711;DHT22;6927;51.256;9.410;2023-02-28T22:21:44;-0.20;99.90
13711;DHT22;6927;51.256;9.410;2023-02-28T22:24:11;-0.20;99.90
13711;DHT22;6927;51.256;9.410;2023-02-28T22:26:49;-0.20;99.90
13711;DHT22;6927;51.256;9.410;2023-02-28T22:29:33;-0.20;99.90
13711;DHT22;6927;51.256;9.410;2023-02-28T22:32:49;-0.10;99.90
13711;DHT22;6927;51.256;9.410;2023-02-28T22:35:51;-0.20;99.90
13711;DHT22;6927;51.256;9.410;2023-02-28T22:38:38;-0.20;99.90
13711;DHT22;6927;51.256;9.410;2023-02-28T22:41:07;-0.20;99.90
13711;DHT22;6927;51.256;9.410;2023-02-28T22:46:57;-0.30;99.90
13711;DHT22;6927;51.256;9.410;2023-02-28T22:49:26;-0.30;99.90
13711;DHT22;6927;51.256;9.410;2023-02-28T22:54:50;-0.20;99.90
13711;DHT22;6927;51.256;9.410;2023-02-28T22:57:27;-0.20;99.90
13711;DHT22;6927;51.256;9.410;2023-02-28T23:00:12;-0.20;99.90
13711;DHT22;6927;51.256;9.410;2023-02-28T23:03:04;-0.20;99.90
13711;DHT22;6927;51.256;9.410;2023-02-28T23:05:46;-0.20;99.90
13711;DHT22;6927;51.256;9.410;2023-02-28T23:08:15;-0.20;99.90
13711;DHT22;6927;51.256;9.410;2023-02-28T23:11:06;-0.30;99.90
13711;DHT22;6927;51.256;9.410;2023-02-28T23:13:37;-0.30;99.90
13711;DHT22;6927;51.256;9.410;2023-02-28T23:16:35;-0.30;99.90
13711;DHT22;6927;51.256;9.410;2023-02-28T23:19:09;-0.30;99.90
13711;DHT22;6927;51.256;9.410;2023-02-28T23:21:48;-0.30;99.90
13711;DHT22;6927;51.256;9.410;2023-02-28T23:24:15;-0.30;99.90
13711;DHT22;6927;51.256;9.410;2023-02-28T23:26:50;-0.40;99.90
13711;DHT22;6927;51.256;9.410;2023-02-28T23:29:29;-0.40;99.90
13711;DHT22;6927;51.256;9.410;2023-02-28T23:32:03;-0.40;99.90
13711;DHT22;6927;51.256;9.410;2023-02-28T23:34:37;-0.40;99.90
13711;DHT22;6927;51.256;9.410;2023-02-28T23:37:03;-0.40;99.90
13711;DHT22;6927;51.256;9.410;2023-02-28T23:39:35;-0.40;99.90
13711;DHT22;6927;51.256;9.410;2023-02-28T23:42:06;-0.30;99.90
13711;DHT22;6927;51.256;9.410;2023-02-28T23:44:32;-0.40;99.90
13711;DHT22;6927;51.256;9.410;2023-02-28T23:46:58;-0.40;99.90
13711;DHT22;6927;51.256;9.410;2023-02-28T23:49:24;-0.40;99.90
13711;DHT22;6927;51.256;9.410;2023-02-28T23:52:01;-0.40;99.90
13711;DHT22;6927;51.256;9.410;2023-02-28T23:54:30;-0.50;99.90
13711;DHT22;6927;51.256;9.410;2023-02-28T23:56:55;-0.40;99.90
13711;DHT22;6927;51.256;9.410;2023-02-28T23:59:21;-0.50;99.90
